Time;durP1;ratioP1;P1;durP2;ratioP2;P2;SDS_P1;SDS_P2;PMS_P1;PMS_P2;Temp;Humidity;BMP_temperature;BMP_pressure;BME280_temperature;BME280_humidity;BME280_pressure;Samples;Min_cycle;Max_cycle;Signal;HPM_P1;HPM_P2
2022/08/15 00:01:07;;;;;;;8.00;6.50;;;;;;;19.09;100.00;99883.66;5021901;28;20593;-71
2022/08/15 00:03:36;;;;;;;7.37;5.77;;;;;;;19.05;100.00;99877.75;5022174;28;20211;-71
2022/08/15 00:06:06;;;;;;;8.73;6.33;;;;;;;19.01;100.00;99875.44;5021618;28;20719;-72
2022/08/15 00:08:36;;;;;;;8.43;6.43;;;;;;;18.97;100.00;99880.09;5024730;28;20591;-72
2022/08/15 00:11:07;;;;;;;8.70;5.93;;;;;;;18.95;100.00;99882.03;5024033;28;21827;-71
2022/08/15 00:13:34;;;;;;;8.80;6.57;;;;;;;18.94;100.00;99882.13;5022831;28;20703;-70
2022/08/15 00:16:01;;;;;;;10.00;6.70;;;;;;;18.95;100.00;99881.19;5024466;28;20204;-71
2022/08/15 00:18:30;;;;;;;9.27;6.67;;;;;;;18.96;100.00;99875.81;5023075;28;20215;-72
2022/08/15 00:20:57;;;;;;;9.13;6.33;;;;;;;18.97;100.00;99887.19;5022594;28;20200;-70
2022/08/15 00:23:26;;;;;;;9.60;7.27;;;;;;;18.98;100.00;99884.44;5022135;28;20596;-71
2022/08/15 00:25:55;;;;;;;10.30;7.80;;;;;;;19.00;100.00;99868.50;5021986;28;20239;-71
2022/08/15 00:28:23;;;;;;;9.73;6.80;;;;;;;19.01;100.00;99871.00;5021960;28;20228;-72
2022/08/15 00:30:49;;;;;;;9.20;6.97;;;;;;;19.06;100.00;99873.31;5022773;28;20674;-72
2022/08/15 00:33:16;;;;;;;9.73;7.53;;;;;;;19.07;100.00;99873.19;5039959;28;20556;-71
2022/08/15 00:35:48;;;;;;;11.00;7.13;;;;;;;19.11;100.00;99879.09;5021561;28;20192;-71
2022/08/15 00:38:18;;;;;;;9.87;7.47;;;;;;;19.14;100.00;99875.38;5039276;22;20332;-71
2022/08/15 00:43:39;;;;;;;10.17;6.83;;;;;;;19.21;100.00;99874.00;5024359;28;20595;-70
2022/08/15 00:46:08;;;;;;;10.70;7.07;;;;;;;19.23;100.00;99872.06;5008520;28;20314;-70
2022/08/15 00:48:46;;;;;;;11.33;7.30;;;;;;;19.26;100.00;99863.91;5008168;28;20223;-70
2022/08/15 00:51:16;;;;;;;9.73;6.53;;;;;;;19.28;100.00;99854.09;5028252;28;20877;-70
2022/08/15 00:53:46;;;;;;;11.20;7.57;;;;;;;19.32;100.00;99854.69;5008036;28;20298;-70
2022/08/15 00:56:14;;;;;;;10.63;7.23;;;;;;;19.34;100.00;99852.78;5028499;28;20555;-70
2022/08/15 00:58:44;;;;;;;8.77;6.53;;;;;;;19.35;100.00;99847.38;5007821;28;20223;-69
2022/08/15 01:01:13;;;;;;;9.30;6.77;;;;;;;19.38;100.00;99841.84;5026243;28;20218;-71
2022/08/15 01:03:45;;;;;;;8.20;6.30;;;;;;;19.39;100.00;99843.53;5010604;28;20239;-70
2022/08/15 01:06:12;;;;;;;8.90;6.40;;;;;;;19.40;100.00;99834.66;5028677;28;20697;-71
2022/08/15 01:08:43;;;;;;;9.67;6.20;;;;;;;19.42;100.00;99837.19;5028511;28;20215;-69
2022/08/15 01:11:13;;;;;;;8.03;6.00;;;;;;;19.40;100.00;99829.38;5011486;28;20196;-71
2022/08/15 01:13:43;;;;;;;8.27;6.27;;;;;;;19.42;100.00;99831.91;5031262;28;20198;-71
2022/08/15 01:16:09;;;;;;;8.93;6.47;;;;;;;19.41;100.00;99836.31;5029120;28;20223;-71
2022/08/15 01:18:36;;;;;;;10.67;6.60;;;;;;;19.41;100.00;99841.63;5011056;28;20220;-70
2022/08/15 01:21:12;;;;;;;10.00;7.07;;;;;;;19.41;100.00;99833.69;5026072;28;20200;-69
2022/08/15 01:23:50;;;;;;;7.10;5.77;;;;;;;19.41;100.00;99838.97;5028899;28;20237;-69
2022/08/15 01:26:18;;;;;;;8.27;6.07;;;;;;;19.41;100.00;99841.63;5028562;28;20192;-70
2022/08/15 01:28:47;;;;;;;8.13;5.73;;;;;;;19.42;100.00;99831.91;5028451;28;20625;-70
2022/08/15 01:31:18;;;;;;;8.17;6.20;;;;;;;19.40;100.00;99834.66;5011241;28;20196;-70
2022/08/15 01:33:47;;;;;;;9.43;6.73;;;;;;;19.37;100.00;99824.31;5012565;28;20296;-70
2022/08/15 01:36:14;;;;;;;9.80;6.30;;;;;;;19.35;100.00;99825.38;5028891;28;20623;-70
2022/08/15 01:38:44;;;;;;;10.57;6.77;;;;;;;19.31;100.00;99832.69;5029203;28;20222;-70
2022/08/15 01:41:20;;;;;;;8.87;6.67;;;;;;;19.28;100.00;99835.59;5025247;28;20444;-69
2022/08/15 01:43:56;;;;;;;10.37;6.60;;;;;;;19.24;100.00;99826.19;5025021;28;20575;-70
2022/08/15 01:46:29;;;;;;;8.87;6.73;;;;;;;19.19;100.00;99828.31;5028431;28;20196;-70
2022/08/15 01:49:13;;;;;;;10.23;7.20;;;;;;;19.16;100.00;99831.22;5010916;28;20317;-69
2022/08/15 01:51:41;;;;;;;10.50;7.67;;;;;;;19.10;100.00;99828.06;4994998;28;20790;-72
2022/08/15 01:54:12;;;;;;;10.37;6.93;;;;;;;19.08;100.00;99831.75;4999182;28;20251;-72
2022/08/15 01:56:41;;;;;;;10.97;7.50;;;;;;;19.03;100.00;99829.47;4997324;28;20217;-72
2022/08/15 01:59:13;;;;;;;9.03;7.03;;;;;;;19.01;100.00;99828.72;5003156;28;20283;-72
2022/08/15 02:01:45;;;;;;;9.90;7.50;;;;;;;18.99;100.00;99835.09;5007646;28;20665;-71
2022/08/15 02:04:18;;;;;;;11.97;7.93;;;;;;;18.95;100.00;99833.66;4995289;28;20244;-72
2022/08/15 02:06:47;;;;;;;11.33;7.57;;;;;;;18.89;100.00;99825.22;5011408;28;20197;-71
2022/08/15 02:09:19;;;;;;;11.73;7.30;;;;;;;18.84;100.00;99824.72;4999489;28;20310;-71
2022/08/15 02:11:49;;;;;;;10.37;7.00;;;;;;;18.80;100.00;99827.66;5009557;28;20212;-72
2022/08/15 02:14:19;;;;;;;10.17;7.07;;;;;;;18.77;100.00;99827.84;4997172;28;20291;-71
2022/08/15 02:16:47;;;;;;;10.83;7.30;;;;;;;18.71;100.00;99822.09;5010627;28;20695;-71
2022/08/15 02:19:16;;;;;;;10.70;7.60;;;;;;;18.68;100.00;99816.16;5007896;28;20588;-72
2022/08/15 02:21:47;;;;;;;11.77;7.47;;;;;;;18.64;100.00;99818.19;5008913;28;20797;-72
2022/08/15 02:24:17;;;;;;;10.83;8.00;;;;;;;18.63;100.00;99816.53;5007316;28;20251;-72
2022/08/15 02:26:44;;;;;;;12.40;7.83;;;;;;;18.65;100.00;99811.97;5017051;28;20201;-72
2022/08/15 02:29:11;;;;;;;14.80;8.20;;;;;;;18.63;100.00;99808.59;5012941;28;20218;-71
2022/08/15 02:31:41;;;;;;;11.10;8.43;;;;;;;18.63;100.00;99808.59;5002891;28;20204;-72
2022/08/15 02:34:09;;;;;;;10.90;7.93;;;;;;;18.66;100.00;99808.38;5012286;28;20280;-73
2022/08/15 02:36:37;;;;;;;12.60;8.57;;;;;;;18.67;100.00;99802.13;5005997;28;20213;-73
2022/08/15 02:39:10;;;;;;;14.00;9.20;;;;;;;18.71;100.00;99805.41;5020294;28;20258;-72
2022/08/15 02:41:42;;;;;;;15.67;8.63;;;;;;;18.74;100.00;99815.75;5000258;28;20225;-72
2022/08/15 02:44:11;;;;;;;11.47;8.53;;;;;;;18.76;100.00;99815.63;5008164;28;20636;-72
2022/08/15 02:46:40;;;;;;;13.80;8.77;;;;;;;18.79;100.00;99813.59;4994889;28;20746;-71
2022/08/15 02:49:12;;;;;;;12.77;9.03;;;;;;;18.79;100.00;99810.13;5008160;28;20217;-71
2022/08/15 02:51:42;;;;;;;12.80;8.13;;;;;;;18.78;100.00;99809.28;4994788;28;20190;-72
2022/08/15 02:54:11;;;;;;;12.27;8.37;;;;;;;18.77;100.00;99809.38;4997556;28;20239;-72
2022/08/15 02:56:38;;;;;;;11.53;8.13;;;;;;;18.74;100.00;99807.81;4994882;28;20283;-71
2022/08/15 02:59:07;;;;;;;12.30;7.57;;;;;;;18.74;100.00;99807.81;5000008;28;20236;-71
2022/08/15 03:01:37;;;;;;;14.97;8.60;;;;;;;18.72;100.00;99807.94;4995445;28;20228;-71
2022/08/15 03:04:07;;;;;;;10.57;8.20;;;;;;;18.69;100.00;99804.66;4994536;28;20209;-72
2022/08/15 03:06:38;;;;;;;11.97;8.10;;;;;;;18.67;100.00;99803.94;5001137;28;20705;-73
2022/08/15 03:09:09;;;;;;;11.07;7.97;;;;;;;18.64;100.00;99802.34;5003303;28;20220;-73
2022/08/15 03:11:44;;;;;;;13.87;8.67;;;;;;;18.61;100.00;99804.38;5000313;28;20219;-73
2022/08/15 03:14:14;;;;;;;12.20;7.93;;;;;;;18.61;100.00;99801.72;5008213;28;20221;-73
2022/08/15 03:16:43;;;;;;;12.20;8.13;;;;;;;18.57;100.00;99795.84;4997038;28;20243;-70
2022/08/15 03:19:16;;;;;;;11.60;7.77;;;;;;;18.54;100.00;99794.28;4993346;28;20708;-71
2022/08/15 03:21:43;;;;;;;13.73;8.50;;;;;;;18.52;100.00;99788.28;5005209;28;20254;-71
2022/08/15 03:24:10;;;;;;;12.33;9.00;;;;;;;18.48;100.00;99783.31;5008067;28;20239;-70
2022/08/15 03:26:38;;;;;;;14.57;8.60;;;;;;;18.47;100.00;99776.38;5007391;28;20212;-70
2022/08/15 03:29:06;;;;;;;13.70;8.30;;;;;;;18.43;100.00;99788.09;4998225;28;20239;-71
2022/08/15 03:31:39;;;;;;;13.67;8.63;;;;;;;18.38;100.00;99784.94;5000195;28;20192;-70
2022/08/15 03:34:05;;;;;;;12.37;9.30;;;;;;;18.33;100.00;99791.38;5001258;28;20205;-71
2022/08/15 03:36:33;;;;;;;12.97;8.30;;;;;;;18.33;100.00;99780.84;4998424;28;20580;-70
2022/08/15 03:39:00;;;;;;;13.10;8.53;;;;;;;18.29;100.00;99778.50;4994280;28;20661;-70
2022/08/15 03:41:28;;;;;;;12.40;8.37;;;;;;;18.26;100.00;99776.13;5001641;28;20232;-70
2022/08/15 03:43:56;;;;;;;13.83;8.93;;;;;;;18.23;100.00;99779.81;4992812;28;20224;-71
2022/08/15 03:46:24;;;;;;;15.43;9.40;;;;;;;18.20;100.00;99780.00;4996704;28;20303;-71
2022/08/15 03:48:53;;;;;;;13.07;8.47;;;;;;;18.19;100.00;99780.97;5007041;28;20243;-70
2022/08/15 03:51:22;;;;;;;13.23;8.83;;;;;;;18.17;100.00;99781.09;5008195;28;20201;-70
2022/08/15 03:53:53;;;;;;;11.50;8.77;;;;;;;18.17;100.00;99769.69;4996840;28;20251;-70
2022/08/15 03:56:23;;;;;;;12.90;8.20;;;;;;;18.15;100.00;99779.50;4994824;28;20220;-70
2022/08/15 03:58:50;;;;;;;13.57;8.27;;;;;;;18.14;100.00;99775.19;5004682;28;20855;-71
2022/08/15 04:01:20;;;;;;;12.93;8.67;;;;;;;18.14;100.00;99775.19;4998526;28;20233;-71
2022/08/15 04:03:49;;;;;;;14.63;9.20;;;;;;;18.15;100.00;99782.13;5007309;28;20227;-70
2022/08/15 04:06:19;;;;;;;13.07;9.20;;;;;;;18.14;100.00;99777.81;4987024;28;20206;-69
2022/08/15 04:08:53;;;;;;;12.60;9.30;;;;;;;18.12;100.00;99777.09;5008036;28;20223;-70
2022/08/15 04:11:22;;;;;;;12.07;8.80;;;;;;;18.11;100.00;99776.22;4994421;28;20843;-71
2022/08/15 04:13:49;;;;;;;13.33;8.77;;;;;;;18.11;100.00;99783.31;5007918;28;20263;-70
2022/08/15 04:16:18;;;;;;;13.17;9.53;;;;;;;18.12;100.00;99790.28;5002877;28;20211;-70
2022/08/15 04:18:45;;;;;;;13.53;9.03;;;;;;;18.14;100.00;99796.28;4991013;28;20231;-70
2022/08/15 04:21:14;;;;;;;13.57;9.13;;;;;;;18.17;100.00;99794.28;4992345;28;20256;-70
2022/08/15 04:23:42;;;;;;;15.03;9.33;;;;;;;18.20;100.00;99787.09;5009608;28;20361;-70
2022/08/15 04:26:11;;;;;;;13.33;9.03;;;;;;;18.24;100.00;99788.56;4992968;28;20208;-71
2022/08/15 04:28:38;;;;;;;13.90;9.07;;;;;;;18.26;100.00;99786.66;5006725;28;20238;-71
2022/08/15 04:31:08;;;;;;;17.40;9.20;;;;;;;18.26;100.00;99800.69;4998855;28;20607;-71
2022/08/15 04:33:35;;;;;;;15.27;9.73;;;;;;;18.29;100.00;99797.84;4996291;28;20732;-71
2022/08/15 04:36:08;;;;;;;12.47;8.63;;;;;;;18.30;100.00;99796.88;4994603;28;20282;-71
2022/08/15 04:38:34;;;;;;;17.83;10.20;;;;;;;18.31;100.00;99793.31;5004771;28;20229;-72
2022/08/15 04:41:03;;;;;;;13.07;9.50;;;;;;;18.32;100.00;99797.59;4994951;28;20204;-71
2022/08/15 04:43:33;;;;;;;12.70;8.93;;;;;;;18.32;100.00;99797.59;4995380;28;20324;-71
2022/08/15 04:46:00;;;;;;;12.70;9.33;;;;;;;18.31;100.00;99793.31;4999954;28;20224;-71
2022/08/15 04:48:27;;;;;;;14.90;9.33;;;;;;;18.34;100.00;99805.41;4983818;28;20255;-71
2022/08/15 04:50:56;;;;;;;15.07;9.63;;;;;;;18.37;100.00;99801.72;4992246;28;20208;-72
2022/08/15 04:53:26;;;;;;;14.93;9.73;;;;;;;18.43;100.00;99798.63;4992683;28;20255;-72
2022/08/15 04:55:54;;;;;;;15.13;9.77;;;;;;;18.48;100.00;99788.59;5018414;28;20223;-71
2022/08/15 04:58:21;;;;;;;16.60;9.40;;;;;;;18.49;100.00;99790.28;4993502;28;20217;-71
2022/08/15 05:00:55;;;;;;;14.60;9.40;;;;;;;18.49;100.00;99792.94;5008500;28;20677;-71
2022/08/15 05:03:29;;;;;;;16.00;9.73;;;;;;;18.47;100.00;99792.19;4995690;28;20287;-71
2022/08/15 05:06:00;;;;;;;15.27;9.30;;;;;;;18.46;100.00;99791.34;5001770;28;20251;-72
2022/08/15 05:08:30;;;;;;;14.87;8.90;;;;;;;18.46;100.00;99790.50;4990416;28;20626;-71
2022/08/15 05:11:01;;;;;;;12.70;8.90;;;;;;;18.45;100.00;99794.94;4990405;28;20586;-71
2022/08/15 05:13:31;;;;;;;13.00;8.80;;;;;;;18.49;100.00;99795.56;5006707;28;20193;-71
2022/08/15 05:16:00;;;;;;;13.10;8.67;;;;;;;18.53;100.00;99799.66;4985875;28;20254;-71
2022/08/15 05:18:31;;;;;;;12.63;8.50;;;;;;;18.60;100.00;99800.06;4987900;28;20975;-72
2022/08/15 05:20:58;;;;;;;14.83;10.07;;;;;;;18.65;100.00;99795.28;4981895;28;20303;-72
2022/08/15 05:23:26;;;;;;;12.90;9.00;;;;;;;18.68;100.00;99795.91;4991527;28;20197;-71
2022/08/15 05:25:55;;;;;;;14.33;9.00;;;;;;;18.74;100.00;99800.72;4989323;28;20202;-71
2022/08/15 05:28:23;;;;;;;14.57;9.40;;;;;;;18.80;100.00;99804.72;4993914;28;20227;-70
2022/08/15 05:30:52;;;;;;;15.20;8.87;;;;;;;18.86;100.00;99806.13;4989627;28;20197;-71
2022/08/15 05:33:23;;;;;;;13.23;9.10;;;;;;;18.85;100.00;99801.78;4984195;28;20193;-71
2022/08/15 05:35:54;;;;;;;13.47;9.30;;;;;;;18.90;100.00;99795.19;4983539;28;20209;-71
2022/08/15 05:38:22;;;;;;;14.27;9.60;;;;;;;19.05;100.00;99793.22;5006370;28;20760;-71
2022/08/15 05:41:02;;;;;;;12.73;8.97;;;;;;;19.14;100.00;99786.41;4989681;28;20204;-71
2022/08/15 05:43:40;;;;;;;14.87;9.03;;;;;;;19.24;100.00;99792.69;4989589;28;20196;-70
2022/08/15 05:46:17;;;;;;;13.97;9.30;;;;;;;19.32;100.00;99784.19;4984775;28;20247;-71
2022/08/15 05:48:51;;;;;;;12.60;8.40;;;;;;;19.42;100.00;99790.44;4987640;28;20224;-71
2022/08/15 05:51:26;;;;;;;13.80;9.30;;;;;;;19.53;100.00;99789.63;4989433;28;20432;-71
2022/08/15 05:54:05;;;;;;;11.73;8.23;;;;;;;19.55;100.00;99785.06;4991644;28;20212;-71
2022/08/15 05:56:40;;;;;;;12.00;8.73;;;;;;;19.58;100.00;99776.91;4993794;28;20212;-71
2022/08/15 05:59:10;;;;;;;15.87;8.47;;;;;;;19.66;100.00;99785.09;5001127;28;20223;-71
2022/08/15 06:01:41;;;;;;;11.27;7.90;;;;;;;19.78;100.00;99785.09;4990735;28;20669;-71
2022/08/15 06:04:16;;;;;;;11.07;7.77;;;;;;;19.85;100.00;99784.50;4994163;28;20307;-71
2022/08/15 06:06:46;;;;;;;10.90;7.60;;;;;;;19.98;100.00;99778.25;4985216;28;20207;-70
2022/08/15 06:09:31;;;;;;;11.37;7.23;;;;;;;20.09;100.00;99778.25;4988871;28;20220;-71
2022/08/15 06:12:05;;;;;;;10.60;7.47;;;;;;;20.19;100.00;99771.28;4987614;28;20617;-70
2022/08/15 06:14:36;;;;;;;11.30;7.93;;;;;;;20.28;100.00;99777.63;4991691;28;20275;-71
2022/08/15 06:17:13;;;;;;;10.17;6.97;;;;;;;20.36;100.00;99777.84;4989407;28;20216;-70
2022/08/15 06:19:46;;;;;;;13.13;7.67;;;;;;;20.48;100.00;99773.38;4983149;28;20503;-72
2022/08/15 06:22:33;;;;;;;9.73;7.37;;;;;;;20.57;100.00;99780.56;5011856;28;20203;-71
2022/08/15 06:25:12;;;;;;;11.97;6.97;;;;;;;20.71;100.00;99776.81;4990624;28;20274;-70
2022/08/15 06:27:49;;;;;;;12.17;8.03;;;;;;;20.79;100.00;99781.47;4988924;28;20224;-70
2022/08/15 06:30:19;;;;;;;12.43;7.50;;;;;;;20.86;100.00;99774.72;4991576;28;20295;-71
2022/08/15 06:32:54;;;;;;;9.37;6.60;;;;;;;20.98;100.00;99783.44;4988585;28;20208;-71
2022/08/15 06:35:31;;;;;;;8.37;6.27;;;;;;;21.05;100.00;99781.97;4983414;28;20228;-71
2022/08/15 06:38:09;;;;;;;9.77;6.87;;;;;;;21.13;100.00;99770.75;5009588;23;20235;-71
2022/08/15 06:40:49;;;;;;;10.03;7.10;;;;;;;21.20;100.00;99774.56;5025628;28;20210;-69
2022/08/15 06:43:15;;;;;;;7.70;5.63;;;;;;;21.28;100.00;99776.56;5023902;28;20218;-70
2022/08/15 06:46:03;;;;;;;10.13;6.27;;;;;;;21.37;100.00;99765.16;5024659;28;20211;-69
2022/08/15 06:48:33;;;;;;;9.13;6.63;;;;;;;21.51;100.00;99774.63;5019777;28;20312;-70
2022/08/15 06:51:04;;;;;;;8.27;6.57;;;;;;;21.64;100.00;99783.22;5004212;28;20657;-71
2022/08/15 06:53:37;;;;;;;8.27;6.67;;;;;;;21.75;100.00;99787.59;5022228;28;20732;-71
2022/08/15 06:56:10;;;;;;;8.83;6.40;;;;;;;21.84;100.00;99786.78;5018105;28;20295;-70
2022/08/15 06:58:55;;;;;;;8.13;6.28;;;;;;;21.94;100.00;99790.34;5011910;28;20223;-70
2022/08/15 07:01:34;;;;;;;7.97;5.97;;;;;;;22.05;100.00;99783.25;5005857;28;20224;-71
2022/08/15 07:04:09;;;;;;;8.45;5.90;;;;;;;22.12;100.00;99782.56;5007717;28;20192;-71
2022/08/15 07:06:44;;;;;;;8.23;5.88;;;;;;;22.24;100.00;99774.53;5025360;28;20661;-70
2022/08/15 07:09:24;;;;;;;8.35;6.38;;;;;;;22.31;100.00;99778.34;5006312;28;20220;-70
2022/08/15 07:12:02;;;;;;;7.88;6.05;;;;;;;22.40;100.00;99774.03;5003779;28;20759;-70
2022/08/15 07:14:35;;;;;;;9.07;6.60;;;;;;;22.50;100.00;99775.72;5018044;28;20568;-71
2022/08/15 07:17:12;;;;;;;7.97;5.72;;;;;;;22.57;100.00;99781.31;5004917;28;20304;-67
2022/08/15 07:19:39;;;;;;;7.38;5.78;;;;;;;22.65;100.00;99777.97;5003277;28;20646;-71
2022/08/15 07:22:14;;;;;;;9.52;6.22;;;;;;;22.74;100.00;99771.81;5005939;28;20199;-70
2022/08/15 07:24:48;;;;;;;8.13;6.15;;;;;;;22.82;100.00;99763.16;5026616;28;20256;-71
2022/08/15 07:27:17;;;;;;;7.60;5.97;;;;;;;22.91;100.00;99778.25;4997626;28;20245;-71
2022/08/15 07:29:55;;;;;;;6.88;5.53;;;;;;;23.01;100.00;99776.44;5006890;28;20224;-71
2022/08/15 07:32:27;;;;;;;6.80;5.90;;;;;;;23.04;100.00;99762.88;5004886;28;20340;-71
2022/08/15 07:34:57;;;;;;;9.18;6.30;;;;;;;23.19;100.00;99762.47;5018436;28;20253;-71
2022/08/15 07:37:26;;;;;;;7.78;6.10;;;;;;;23.33;100.00;99769.16;5018126;28;20275;-70
2022/08/15 07:40:02;;;;;;;8.05;5.90;;;;;;;23.49;100.00;99763.25;5000704;28;20319;-70
2022/08/15 07:42:29;;;;;;;8.02;6.20;;;;;;;23.54;100.00;99769.78;5004690;28;20255;-71
2022/08/15 07:44:59;;;;;;;7.13;5.50;;;;;;;23.60;100.00;99769.19;5004726;28;20298;-69
2022/08/15 07:47:28;;;;;;;7.40;6.20;;;;;;;23.71;100.00;99764.69;5017584;28;20280;-70
2022/08/15 07:50:03;;;;;;;7.47;5.22;;;;;;;23.78;100.00;99758.66;5018552;28;20304;-70
2022/08/15 07:52:32;;;;;;;10.48;6.07;;;;;;;23.90;100.00;99758.50;5022242;28;20204;-71
2022/08/15 07:55:14;;;;;;;10.52;5.90;;;;;;;24.00;100.00;99767.28;5003120;28;20208;-71
2022/08/15 07:57:41;;;;;;;6.60;5.57;;;;;;;24.11;100.00;99760.91;5013827;28;20236;-71
2022/08/15 08:00:16;;;;;;;6.22;5.25;;;;;;;24.13;100.00;99759.78;5006337;28;20201;-70
2022/08/15 08:02:58;;;;;;;7.45;5.82;;;;;;;24.16;98.37;99761.31;5002478;28;20907;-69
2022/08/15 08:05:29;;;;;;;7.95;6.07;;;;;;;24.22;98.03;99770.50;5003244;28;20224;-71
2022/08/15 08:08:01;;;;;;;8.43;5.68;;;;;;;24.32;95.71;99771.31;5001544;28;20217;-71
2022/08/15 08:10:34;;;;;;;6.90;5.82;;;;;;;24.36;94.04;99767.34;5004419;28;21025;-70
2022/08/15 08:13:15;;;;;;;9.73;5.68;;;;;;;24.47;95.65;99769.81;5018083;28;20232;-71
2022/08/15 08:15:55;;;;;;;6.25;5.20;;;;;;;24.62;92.55;99775.47;5001467;28;20204;-71
2022/08/15 08:18:30;;;;;;;7.75;5.55;;;;;;;24.65;90.75;99777.84;5025068;28;20269;-71
2022/08/15 08:21:03;;;;;;;6.07;5.47;;;;;;;24.66;92.53;99771.53;5007891;28;20204;-71
2022/08/15 08:23:37;;;;;;;6.22;5.35;;;;;;;24.68;92.35;99772.22;4999439;28;20215;-71
2022/08/15 08:26:18;;;;;;;7.65;5.85;;;;;;;24.65;90.94;99774.34;5019823;28;20580;-71
2022/08/15 08:28:52;;;;;;;5.75;4.97;;;;;;;24.60;92.85;99772.13;5003896;28;20224;-71
2022/08/15 08:31:26;;;;;;;7.30;5.43;;;;;;;24.62;94.73;99770.13;5013176;28;20240;-71
2022/08/15 08:34:05;;;;;;;6.00;5.40;;;;;;;24.61;93.41;99770.28;5001602;28;20215;-69
2022/08/15 08:36:40;;;;;;;7.30;5.95;;;;;;;24.67;94.29;99769.69;4999888;28;20201;-70
2022/08/15 08:39:30;;;;;;;7.07;5.65;;;;;;;24.75;92.97;99764.47;5002345;28;20752;-68
2022/08/15 08:42:03;;;;;;;7.47;5.50;;;;;;;24.87;93.85;99757.91;5004900;28;20204;-70
2022/08/15 08:44:41;;;;;;;7.47;5.82;;;;;;;24.93;92.79;99770.59;5006839;28;20258;-72
2022/08/15 08:47:28;;;;;;;6.82;6.05;;;;;;;25.00;92.49;99762.00;5000763;28;20262;-70
2022/08/15 08:50:08;;;;;;;6.70;5.82;;;;;;;25.25;91.76;99765.72;5001674;28;20223;-69
2022/08/15 08:52:45;;;;;;;8.18;5.30;;;;;;;25.61;86.52;99769.13;5000141;28;20240;-71
2022/08/15 08:55:20;;;;;;;7.97;5.43;;;;;;;25.86;87.45;99764.72;5001635;28;20265;-70
2022/08/15 08:57:52;;;;;;;7.32;5.25;;;;;;;26.10;81.05;99773.88;5003428;28;20239;-71
2022/08/15 09:00:21;;;;;;;5.85;4.80;;;;;;;26.26;78.79;99778.41;5004405;28;20204;-72
2022/08/15 09:02:51;;;;;;;7.68;5.57;;;;;;;26.38;78.85;99773.63;5003349;28;20200;-71
2022/08/15 09:05:29;;;;;;;8.18;5.18;;;;;;;26.52;76.45;99774.81;5001079;28;20272;-71
2022/08/15 09:08:00;;;;;;;6.05;5.00;;;;;;;26.63;76.38;99767.38;5002536;28;20755;-69
2022/08/15 09:10:32;;;;;;;6.15;5.10;;;;;;;26.79;75.24;99773.75;5005542;28;20208;-71
2022/08/15 09:15:48;;;;;;;5.97;5.38;;;;;;;27.05;73.46;99768.19;5002267;28;20197;-72
2022/08/15 09:18:21;;;;;;;7.00;5.57;;;;;;;27.25;73.04;99774.06;4999325;28;20711;-72
2022/08/15 09:20:48;;;;;;;7.55;5.70;;;;;;;27.40;74.30;99771.53;4998336;28;20223;-72
2022/08/15 09:23:16;;;;;;;7.32;5.72;;;;;;;27.45;70.17;99773.72;5003302;28;20887;-71
2022/08/15 09:25:57;;;;;;;6.43;5.60;;;;;;;27.47;69.71;99774.38;5001362;28;20207;-69
2022/08/15 09:28:31;;;;;;;7.05;5.25;;;;;;;27.11;70.72;99775.56;5003338;28;20222;-70
2022/08/15 09:31:04;;;;;;;6.13;4.88;;;;;;;26.91;70.51;99776.91;5002549;28;20605;-69
2022/08/15 09:34:05;;;;;;;5.93;5.15;;;;;;;26.78;73.58;99764.88;5007165;28;20208;-71
2022/08/15 09:37:02;;;;;;;5.45;4.90;;;;;;;26.89;74.24;99768.22;4974731;28;20219;-71
2022/08/15 09:39:48;;;;;;;7.47;5.22;;;;;;;27.09;70.23;99766.88;4991643;28;20351;-71
2022/08/15 09:42:31;;;;;;;6.18;5.25;;;;;;;27.38;68.63;99761.00;5002304;28;20208;-71
2022/08/15 09:45:18;;;;;;;6.80;5.00;;;;;;;27.65;65.09;99766.13;5001732;28;21006;-71
2022/08/15 09:48:00;;;;;;;5.47;4.97;;;;;;;27.90;64.80;99766.91;4999511;28;20620;-69
2022/08/15 09:50:50;;;;;;;6.18;4.95;;;;;;;28.03;60.38;99763.69;5007020;28;20259;-72
2022/08/15 09:53:33;;;;;;;5.53;4.93;;;;;;;28.18;62.81;99753.91;4996387;28;20220;-71
2022/08/15 09:56:04;;;;;;;5.97;4.78;;;;;;;28.01;60.88;99761.19;5000561;28;20216;-71
2022/08/15 09:58:36;;;;;;;5.13;4.60;;;;;;;27.77;61.99;99756.72;5003403;28;20229;-71
2022/08/15 10:01:08;;;;;;;5.25;4.68;;;;;;;27.52;63.63;99750.63;5001233;28;20212;-72
2022/08/15 10:03:55;;;;;;;6.13;5.15;;;;;;;27.35;63.68;99752.47;5006397;28;20557;-71
2022/08/15 10:06:25;;;;;;;5.47;4.72;;;;;;;27.19;63.53;99751.50;5008863;28;20203;-68
2022/08/15 10:09:12;;;;;;;6.03;4.20;;;;;;;27.10;64.32;99749.00;5003119;28;20239;-71
2022/08/15 10:11:59;;;;;;;6.40;5.22;;;;;;;27.09;64.15;99748.16;5009768;28;20209;-69
2022/08/15 10:14:29;;;;;;;6.20;4.97;;;;;;;27.06;63.51;99742.31;5010413;28;20207;-71
2022/08/15 10:16:58;;;;;;;6.28;5.18;;;;;;;26.97;65.12;99736.13;5009225;28;20204;-72
2022/08/15 10:19:32;;;;;;;7.90;5.45;;;;;;;26.97;65.66;99728.94;5015078;28;20566;-71
2022/08/15 10:22:00;;;;;;;6.97;5.15;;;;;;;27.06;66.66;99732.44;5012279;28;20196;-70
2022/08/15 10:24:32;;;;;;;5.20;4.70;;;;;;;27.05;66.72;99725.41;5007121;28;20209;-70
2022/08/15 10:27:22;;;;;;;5.50;4.70;;;;;;;27.19;66.67;99723.88;5003663;28;20216;-71
2022/08/15 10:30:10;;;;;;;5.93;4.80;;;;;;;27.31;64.93;99714.53;5006661;28;20235;-71
2022/08/15 10:32:41;;;;;;;6.03;5.22;;;;;;;27.52;64.75;99715.81;4999568;28;20201;-69
2022/08/15 10:35:15;;;;;;;7.32;5.53;;;;;;;27.71;63.40;99717.28;5016405;28;20209;-70
2022/08/15 10:37:51;;;;;;;6.30;4.97;;;;;;;27.64;60.36;99709.09;5015685;28;20216;-71
2022/08/15 10:40:46;;;;;;;6.07;5.22;;;;;;;27.64;61.30;99717.13;5003783;28;20222;-70
2022/08/15 10:43:39;;;;;;;6.32;5.10;;;;;;;27.58;62.58;99715.97;5014327;28;20223;-71
2022/08/15 10:46:18;;;;;;;6.38;5.13;;;;;;;27.75;62.81;99719.41;5001087;28;20193;-71
2022/08/15 10:48:58;;;;;;;6.03;5.43;;;;;;;27.97;63.35;99703.63;5011005;28;20570;-72
2022/08/15 10:51:43;;;;;;;7.90;5.63;;;;;;;27.98;61.98;99715.16;5007680;28;20217;-71
2022/08/15 10:54:23;;;;;;;5.25;4.75;;;;;;;28.09;59.58;99714.75;5004453;28;20251;-72
2022/08/15 10:56:54;;;;;;;4.78;4.28;;;;;;;28.17;56.23;99713.91;5003314;28;20744;-72
2022/08/15 10:59:24;;;;;;;6.45;4.60;;;;;;;28.30;59.53;99706.94;5003989;28;20308;-70
2022/08/15 11:02:05;;;;;;;4.95;4.38;;;;;;;28.46;56.35;99715.88;5004409;28;20208;-72
2022/08/15 11:04:35;;;;;;;5.93;4.60;;;;;;;28.50;58.67;99706.47;4998485;28;20201;-71
2022/08/15 11:07:16;;;;;;;5.95;4.32;;;;;;;28.51;57.84;99702.78;5003540;28;20236;-72
2022/08/15 11:09:43;;;;;;;6.63;4.70;;;;;;;28.58;56.95;99706.44;5009438;28;20771;-71
2022/08/15 11:12:10;;;;;;;5.88;5.28;;;;;;;28.76;57.07;99708.81;5003159;28;20311;-72
2022/08/15 11:14:43;;;;;;;5.13;4.63;;;;;;;28.99;57.10;99698.06;5006634;28;20713;-70
2022/08/15 11:17:19;;;;;;;5.97;4.82;;;;;;;29.05;56.01;99704.53;5012804;28;20239;-72
2022/08/15 11:19:50;;;;;;;9.15;5.25;;;;;;;29.10;53.62;99699.44;5005888;28;20689;-72
2022/08/15 11:22:29;;;;;;;7.07;4.88;;;;;;;29.18;55.23;99699.41;5013272;28;20615;-71
2022/08/15 11:24:57;;;;;;;4.93;4.53;;;;;;;29.26;55.17;99698.47;4997862;28;20208;-72
2022/08/15 11:27:25;;;;;;;8.00;5.03;;;;;;;29.39;54.36;99692.47;5001144;28;20205;-71
2022/08/15 11:29:53;;;;;;;5.30;4.80;;;;;;;29.49;54.28;99684.13;5010580;28;20589;-72
2022/08/15 11:32:28;;;;;;;5.20;4.68;;;;;;;29.60;55.97;99692.56;5008612;28;20594;-71
2022/08/15 11:34:56;;;;;;;6.45;4.97;;;;;;;29.60;55.24;99692.56;5007113;28;20203;-71
2022/08/15 11:37:26;;;;;;;5.53;4.93;;;;;;;29.65;53.00;99687.44;5010346;28;20200;-71
2022/08/15 11:40:00;;;;;;;6.47;4.93;;;;;;;29.64;57.05;99672.38;5004607;28;20595;-72
2022/08/15 11:42:29;;;;;;;5.90;5.00;;;;;;;29.79;54.03;99682.28;5009663;28;20197;-71
2022/08/15 11:45:00;;;;;;;5.80;4.90;;;;;;;29.92;51.10;99690.50;5006386;28;20200;-70
2022/08/15 11:47:32;;;;;;;7.10;5.07;;;;;;;29.85;51.78;99681.53;4998606;28;20481;-71
2022/08/15 11:50:02;;;;;;;6.00;5.03;;;;;;;29.76;52.81;99688.00;5002514;28;20199;-71
2022/08/15 11:52:32;;;;;;;5.88;5.20;;;;;;;29.55;54.04;99692.28;5000369;28;20272;-71
2022/08/15 11:55:09;;;;;;;5.78;5.18;;;;;;;29.47;53.55;99691.56;5005055;28;20204;-71